createdAt,value
2022-07-27T00:01:15.732Z,17.76
2022-07-27T00:03:45.396Z,17.72
2022-07-27T00:06:13.734Z,17.74
2022-07-27T00:08:41.302Z,17.69
2022-07-27T00:11:10.344Z,17.70
2022-07-27T00:13:38.924Z,17.71
2022-07-27T00:16:07.561Z,17.66
2022-07-27T00:18:35.131Z,17.62
2022-07-27T00:21:02.332Z,17.57
2022-07-27T00:23:29.634Z,17.52
2022-07-27T00:25:57.262Z,17.54
2022-07-27T00:28:24.510Z,17.52
2022-07-27T00:30:51.784Z,17.53
2022-07-27T00:33:19.249Z,17.52
2022-07-27T00:35:46.696Z,17.51
2022-07-27T00:38:14.125Z,17.48
2022-07-27T00:40:41.746Z,17.47
2022-07-27T00:43:09.033Z,17.42
2022-07-27T00:45:36.401Z,17.42
2022-07-27T00:48:04.299Z,17.43
2022-07-27T00:50:31.814Z,17.47
2022-07-27T00:52:59.638Z,17.47
2022-07-27T00:55:27.723Z,17.48
2022-07-27T00:57:59.314Z,17.46
2022-07-27T01:00:28.527Z,17.35
2022-07-27T01:02:57.496Z,17.38
2022-07-27T01:05:35.964Z,17.40
2022-07-27T01:08:07.886Z,17.39
2022-07-27T01:10:36.166Z,17.35
2022-07-27T01:13:03.708Z,17.30
2022-07-27T01:15:36.818Z,17.31
2022-07-27T01:18:04.829Z,17.30
2022-07-27T01:20:33.838Z,17.30
2022-07-27T01:23:01.077Z,17.28
2022-07-27T01:25:28.330Z,17.26
2022-07-27T01:27:55.723Z,17.29
2022-07-27T01:30:30.502Z,17.29
2022-07-27T01:33:03.561Z,17.33
2022-07-27T01:35:30.937Z,17.31
2022-07-27T01:37:58.707Z,17.29
2022-07-27T01:40:26.190Z,17.28
2022-07-27T01:42:53.567Z,17.25
2022-07-27T01:45:21.983Z,17.30
2022-07-27T01:47:49.589Z,17.29
2022-07-27T01:50:16.975Z,17.30
2022-07-27T01:52:44.506Z,17.31
2022-07-27T01:55:12.340Z,17.27
2022-07-27T01:57:40.269Z,17.27
2022-07-27T02:00:12.107Z,17.27
2022-07-27T02:02:41.295Z,17.33
2022-07-27T02:05:12.221Z,17.28
2022-07-27T02:07:41.543Z,17.28
2022-07-27T02:10:10.297Z,17.28
2022-07-27T02:12:38.734Z,17.26
2022-07-27T02:15:19.564Z,17.19
2022-07-27T02:17:49.293Z,17.23
2022-07-27T02:20:21.389Z,17.21
2022-07-27T02:22:50.073Z,17.17
2022-07-27T02:25:19.594Z,17.13
2022-07-27T02:27:47.920Z,17.12
2022-07-27T02:30:17.885Z,17.07
2022-07-27T02:32:45.458Z,17.04
2022-07-27T02:35:19.912Z,17.02
2022-07-27T02:37:49.115Z,17.01
2022-07-27T02:40:18.185Z,17.00
2022-07-27T02:42:47.331Z,16.97
2022-07-27T02:45:16.320Z,16.92
2022-07-27T02:47:44.900Z,16.91
2022-07-27T02:50:12.753Z,16.89
2022-07-27T02:52:41.161Z,16.84
2022-07-27T02:55:10.618Z,16.81
2022-07-27T02:57:41.285Z,16.78
2022-07-27T03:00:14.423Z,16.74
2022-07-27T03:02:42.030Z,16.73
2022-07-27T03:05:11.029Z,16.70
2022-07-27T03:07:38.845Z,16.67
2022-07-27T03:10:07.178Z,16.69
2022-07-27T03:12:34.874Z,16.66
2022-07-27T03:15:02.293Z,16.66
2022-07-27T03:17:29.663Z,16.66
2022-07-27T03:19:57.159Z,16.65
2022-07-27T03:22:24.472Z,16.69
2022-07-27T03:24:51.793Z,16.71
2022-07-27T03:27:19.271Z,16.72
2022-07-27T03:29:46.627Z,16.74
2022-07-27T03:32:14.032Z,16.77
2022-07-27T03:34:41.484Z,16.83
2022-07-27T03:37:08.845Z,16.87
2022-07-27T03:39:36.564Z,16.87
2022-07-27T03:42:04.583Z,16.99
2022-07-27T03:44:32.057Z,17.04
2022-07-27T03:46:59.652Z,17.16
2022-07-27T03:49:27.354Z,17.24
2022-07-27T03:51:54.686Z,17.34
2022-07-27T03:54:22.130Z,17.38
2022-07-27T03:56:49.636Z,17.46
2022-07-27T03:59:17.047Z,17.51
2022-07-27T04:01:44.466Z,17.58
2022-07-27T04:04:12.138Z,17.67
2022-07-27T04:06:39.520Z,17.77
2022-07-27T04:09:08.655Z,17.79
2022-07-27T04:11:37.840Z,17.80
2022-07-27T04:14:16.940Z,17.85
2022-07-27T04:16:44.588Z,17.89
2022-07-27T04:19:12.145Z,17.94
2022-07-27T04:21:39.719Z,17.98
2022-07-27T04:24:07.837Z,18.05
2022-07-27T04:26:35.181Z,18.08
2022-07-27T04:29:02.878Z,18.17
2022-07-27T04:31:30.900Z,18.22
2022-07-27T04:33:58.449Z,18.25
2022-07-27T04:36:25.831Z,18.29
2022-07-27T04:38:53.375Z,18.39
2022-07-27T04:41:21.196Z,18.54
2022-07-27T04:43:48.578Z,18.61
2022-07-27T04:46:16.581Z,18.72
2022-07-27T04:48:49.090Z,18.90
2022-07-27T04:51:18.472Z,18.99
2022-07-27T04:53:52.783Z,19.06
2022-07-27T04:56:27.538Z,19.13
2022-07-27T04:58:56.183Z,19.17
2022-07-27T05:01:23.856Z,19.21
2022-07-27T05:03:52.552Z,19.29
2022-07-27T05:06:20.353Z,19.39
2022-07-27T05:08:47.651Z,19.40
2022-07-27T05:11:15.495Z,19.48
2022-07-27T05:13:42.855Z,19.53
2022-07-27T05:16:11.375Z,19.76
2022-07-27T05:18:40.181Z,20.01
2022-07-27T05:21:09.755Z,20.23
2022-07-27T05:23:37.140Z,20.56
2022-07-27T05:26:05.119Z,20.80
2022-07-27T05:28:32.505Z,20.97
2022-07-27T05:30:59.977Z,20.86
2022-07-27T05:33:27.635Z,20.80
2022-07-27T05:35:57.260Z,20.81
2022-07-27T05:38:24.467Z,20.88
2022-07-27T05:40:53.336Z,21.11
2022-07-27T05:43:20.675Z,21.39
2022-07-27T05:45:48.174Z,21.71
2022-07-27T05:48:16.045Z,21.91
2022-07-27T05:50:43.896Z,22.03
2022-07-27T05:53:11.236Z,22.05
2022-07-27T05:55:38.726Z,22.05
2022-07-27T05:58:06.392Z,22.08
2022-07-27T06:00:34.398Z,21.80
2022-07-27T06:03:01.992Z,21.52
2022-07-27T06:05:29.413Z,21.39
2022-07-27T06:07:59.457Z,21.41
2022-07-27T06:10:32.525Z,21.78
2022-07-27T06:13:01.415Z,22.28
2022-07-27T06:15:28.962Z,22.62
2022-07-27T06:17:56.647Z,23.16
2022-07-27T06:20:25.446Z,23.67
2022-07-27T06:22:57.432Z,23.65
2022-07-27T06:25:34.050Z,23.78
2022-07-27T06:28:06.704Z,24.04
2022-07-27T06:30:34.144Z,24.18
2022-07-27T06:33:06.721Z,24.10
2022-07-27T06:35:37.763Z,23.97
2022-07-27T06:38:05.676Z,23.90
2022-07-27T06:40:32.940Z,24.02
2022-07-27T06:43:00.713Z,24.15
2022-07-27T06:45:28.173Z,24.25
2022-07-27T06:47:55.523Z,24.45
2022-07-27T06:50:23.691Z,24.60
2022-07-27T06:52:51.011Z,24.63
2022-07-27T06:55:18.381Z,24.65
2022-07-27T06:57:46.644Z,24.68
2022-07-27T07:00:15.327Z,24.55
2022-07-27T07:03:01.119Z,24.60
2022-07-27T07:05:29.431Z,24.79
2022-07-27T07:07:57.534Z,24.78
2022-07-27T07:10:26.224Z,24.71
2022-07-27T07:12:56.295Z,24.60
2022-07-27T07:15:26.907Z,24.51
2022-07-27T07:17:54.748Z,24.29
2022-07-27T07:20:22.957Z,24.10
2022-07-27T07:22:50.987Z,24.03
2022-07-27T07:25:18.594Z,23.99
2022-07-27T07:27:45.910Z,23.98
2022-07-27T07:30:13.554Z,23.95
2022-07-27T07:32:41.091Z,23.84
2022-07-27T07:35:09.286Z,23.58
2022-07-27T07:37:36.527Z,23.58
2022-07-27T07:40:32.565Z,23.56
2022-07-27T07:42:56.785Z,23.46
2022-07-27T07:45:25.210Z,23.15
2022-07-27T07:47:54.107Z,23.10
2022-07-27T07:50:22.414Z,23.07
2022-07-27T07:52:52.386Z,23.10
2022-07-27T07:55:21.896Z,23.15
2022-07-27T07:57:50.682Z,23.02
2022-07-27T08:00:19.638Z,23.01
2022-07-27T08:02:54.419Z,23.18
2022-07-27T08:05:22.796Z,23.34
2022-07-27T08:07:50.695Z,23.46
2022-07-27T08:10:21.811Z,23.45
2022-07-27T08:12:54.604Z,23.67
2022-07-27T08:15:34.808Z,23.78
2022-07-27T08:18:05.697Z,24.10
2022-07-27T08:20:34.341Z,24.47
2022-07-27T08:23:02.307Z,24.84
2022-07-27T08:25:30.197Z,25.35
2022-07-27T08:27:58.796Z,26.57
2022-07-27T08:30:27.223Z,26.97
2022-07-27T08:33:01.736Z,27.14
2022-07-27T08:35:31.243Z,27.22
2022-07-27T08:38:00.641Z,26.85
2022-07-27T08:40:39.605Z,26.57
2022-07-27T08:43:09.799Z,26.22
2022-07-27T08:45:38.655Z,25.95
2022-07-27T08:48:06.581Z,25.60
2022-07-27T08:50:35.441Z,25.31
2022-07-27T08:53:12.525Z,24.98
2022-07-27T08:55:44.227Z,24.67
2022-07-27T08:58:13.775Z,24.42
2022-07-27T09:00:45.930Z,24.12
2022-07-27T09:03:19.564Z,24.17
2022-07-27T09:05:56.515Z,24.39
2022-07-27T09:08:31.118Z,24.58
2022-07-27T09:11:00.462Z,24.85
2022-07-27T09:13:33.420Z,25.05
2022-07-27T09:16:23.501Z,25.08
2022-07-27T09:19:10.653Z,25.10
2022-07-27T09:21:38.531Z,25.22
2022-07-27T09:24:29.744Z,25.13
2022-07-27T09:27:05.958Z,25.19
2022-07-27T09:29:37.242Z,25.50
2022-07-27T09:32:15.828Z,25.71
2022-07-27T09:34:43.872Z,25.87
2022-07-27T09:37:12.536Z,26.01
2022-07-27T09:39:40.052Z,26.10
2022-07-27T09:43:02.774Z,26.18
2022-07-27T09:45:04.475Z,26.47
2022-07-27T09:47:34.578Z,26.84
2022-07-27T09:50:29.039Z,27.37
2022-07-27T09:53:41.740Z,29.10
2022-07-27T09:56:15.057Z,29.85
2022-07-27T09:58:50.363Z,30.19
2022-07-27T10:01:29.335Z,30.49
2022-07-27T10:04:03.219Z,31.13
2022-07-27T10:06:42.727Z,32.70
2022-07-27T10:09:22.880Z,32.75
2022-07-27T10:11:51.228Z,33.00
2022-07-27T10:14:18.542Z,33.75
2022-07-27T10:16:50.988Z,34.00
2022-07-27T10:19:47.695Z,35.14
2022-07-27T10:22:15.367Z,36.23
2022-07-27T10:24:43.765Z,39.06
2022-07-27T10:27:30.928Z,37.42
2022-07-27T10:29:59.198Z,36.59
2022-07-27T10:32:33.677Z,36.98
2022-07-27T10:35:02.126Z,37.93
2022-07-27T10:37:34.900Z,40.63
2022-07-27T10:40:26.336Z,44.60
2022-07-27T10:43:18.616Z,45.52
2022-07-27T10:46:01.413Z,45.23
2022-07-27T10:48:47.903Z,43.38
2022-07-27T10:51:17.540Z,41.36
2022-07-27T10:56:48.180Z,39.19
2022-07-27T10:59:51.241Z,38.44
2022-07-27T11:02:41.708Z,37.54
2022-07-27T11:05:32.741Z,37.36
2022-07-27T11:10:48.887Z,37.04
2022-07-27T11:13:22.175Z,37.25
2022-07-27T11:16:23.326Z,37.03
2022-07-27T11:19:05.145Z,36.70
2022-07-27T11:21:38.581Z,36.59
2022-07-27T11:24:19.682Z,36.74
2022-07-27T11:26:50.418Z,36.73
2022-07-27T11:29:22.467Z,36.91
2022-07-27T11:31:57.025Z,36.72
2022-07-27T11:34:35.066Z,36.92
2022-07-27T11:37:13.870Z,37.11
2022-07-27T11:39:59.903Z,37.28
2022-07-27T11:42:39.270Z,37.44
2022-07-27T11:45:07.851Z,37.11
2022-07-27T11:47:37.069Z,36.44
2022-07-27T11:50:08.515Z,36.04
2022-07-27T11:52:36.409Z,36.14
2022-07-27T11:55:04.154Z,36.34
2022-07-27T11:57:33.922Z,36.50
2022-07-27T12:00:02.287Z,36.60
2022-07-27T12:02:29.707Z,36.70
2022-07-27T12:05:02.556Z,36.79
2022-07-27T12:07:33.818Z,36.16
2022-07-27T12:10:09.704Z,35.74
2022-07-27T12:12:38.285Z,35.43
2022-07-27T12:18:06.799Z,35.44
2022-07-27T12:20:36.723Z,35.66
2022-07-27T12:23:07.487Z,35.71
2022-07-27T12:25:35.774Z,35.70
2022-07-27T12:28:08.556Z,35.83
2022-07-27T12:30:44.758Z,35.80
2022-07-27T12:33:38.151Z,35.89
2022-07-27T12:36:08.555Z,35.71
2022-07-27T12:38:46.062Z,35.77
2022-07-27T12:41:32.693Z,35.80
2022-07-27T12:44:15.819Z,35.66
2022-07-27T12:47:02.554Z,35.35
2022-07-27T12:49:40.862Z,35.51
2022-07-27T12:52:11.237Z,35.35
2022-07-27T12:54:39.057Z,35.53
2022-07-27T12:57:06.590Z,35.69
2022-07-27T12:59:34.050Z,35.48
2022-07-27T13:02:01.369Z,35.01
2022-07-27T13:04:28.691Z,34.74
2022-07-27T13:06:56.165Z,34.67
2022-07-27T13:09:23.509Z,34.54
2022-07-27T13:11:50.744Z,34.45
2022-07-27T13:14:18.210Z,34.71
2022-07-27T13:16:45.496Z,34.80
2022-07-27T13:19:15.594Z,34.75
2022-07-27T13:21:43.631Z,34.86
2022-07-27T13:24:11.553Z,34.83
2022-07-27T13:26:39.565Z,34.80
2022-07-27T13:29:07.280Z,34.73
2022-07-27T13:31:34.736Z,34.63
2022-07-27T13:34:02.103Z,34.50
2022-07-27T13:36:29.700Z,34.36
2022-07-27T13:38:56.953Z,34.23
2022-07-27T13:41:24.267Z,34.32
2022-07-27T13:43:51.834Z,34.18
2022-07-27T13:46:19.214Z,33.92
2022-07-27T13:48:46.710Z,33.84
2022-07-27T13:51:14.299Z,33.84
2022-07-27T13:53:41.553Z,33.96
2022-07-27T13:56:09.319Z,34.38
2022-07-27T13:58:41.039Z,34.57
2022-07-27T14:01:09.009Z,34.69
2022-07-27T14:03:36.924Z,34.71
2022-07-27T14:06:04.577Z,34.60
2022-07-27T14:08:34.037Z,34.50
2022-07-27T14:11:01.323Z,34.50
2022-07-27T14:13:32.849Z,34.34
2022-07-27T14:16:01.682Z,34.44
2022-07-27T14:18:32.396Z,34.73
2022-07-27T14:21:04.091Z,34.87
2022-07-27T14:23:33.415Z,34.80
2022-07-27T14:26:03.620Z,34.67
2022-07-27T14:28:31.873Z,34.44
2022-07-27T14:31:00.859Z,34.24
2022-07-27T14:33:33.299Z,34.23
2022-07-27T14:36:07.435Z,34.16
2022-07-27T14:38:37.099Z,34.10
2022-07-27T14:41:06.194Z,34.09
2022-07-27T14:43:33.813Z,33.84
2022-07-27T14:46:01.716Z,33.66
2022-07-27T14:48:48.927Z,33.27
2022-07-27T14:51:16.776Z,33.13
2022-07-27T14:53:44.133Z,32.82
2022-07-27T14:56:11.519Z,32.49
2022-07-27T14:58:42.215Z,32.24
2022-07-27T15:01:09.979Z,32.00
2022-07-27T15:03:37.400Z,31.92
2022-07-27T15:06:05.434Z,31.91
2022-07-27T15:08:32.926Z,31.64
2022-07-27T15:11:00.295Z,31.80
2022-07-27T15:13:27.936Z,31.82
2022-07-27T15:15:57.430Z,31.98
2022-07-27T15:18:24.894Z,31.83
2022-07-27T15:20:52.441Z,31.71
2022-07-27T15:23:19.764Z,31.78
2022-07-27T15:25:47.351Z,31.86
2022-07-27T15:28:15.599Z,31.72
2022-07-27T15:30:42.914Z,31.53
2022-07-27T15:33:10.372Z,31.71
2022-07-27T15:35:38.047Z,31.78
2022-07-27T15:38:05.499Z,31.84
2022-07-27T15:40:39.119Z,31.88
2022-07-27T15:43:13.087Z,31.84
2022-07-27T15:45:43.104Z,31.95
2022-07-27T15:48:12.745Z,32.06
2022-07-27T15:50:43.732Z,32.14
2022-07-27T15:53:12.104Z,32.04
2022-07-27T15:55:39.860Z,31.75
2022-07-27T15:58:07.775Z,31.60
2022-07-27T16:00:40.570Z,31.45
2022-07-27T16:03:10.653Z,31.14
2022-07-27T16:05:40.623Z,30.89
2022-07-27T16:08:10.025Z,30.72
2022-07-27T16:10:39.456Z,30.63
2022-07-27T16:13:08.946Z,30.55
2022-07-27T16:15:56.146Z,30.46
2022-07-27T16:18:23.771Z,30.29
2022-07-27T16:20:52.536Z,30.14
2022-07-27T16:23:22.286Z,29.91
2022-07-27T16:26:04.402Z,29.77
2022-07-27T16:28:36.002Z,29.45
2022-07-27T16:31:05.773Z,29.30
2022-07-27T16:33:44.635Z,29.14
2022-07-27T16:36:12.930Z,28.81
2022-07-27T16:38:49.715Z,28.66
2022-07-27T16:41:21.074Z,28.51
2022-07-27T16:43:49.637Z,28.37
2022-07-27T16:46:17.353Z,28.34
2022-07-27T16:48:45.620Z,28.23
2022-07-27T16:51:15.067Z,28.09
2022-07-27T16:53:46.288Z,28.00
2022-07-27T16:56:14.702Z,27.88
2022-07-27T16:58:43.504Z,27.69
2022-07-27T17:01:22.039Z,27.60
2022-07-27T17:03:57.855Z,27.42
2022-07-27T17:06:26.704Z,27.32
2022-07-27T17:08:54.325Z,27.14
2022-07-27T17:11:22.561Z,27.00
2022-07-27T17:13:58.904Z,26.83
2022-07-27T17:16:28.894Z,26.86
2022-07-27T17:18:56.909Z,26.77
2022-07-27T17:21:24.478Z,26.64
2022-07-27T17:23:52.008Z,26.50
2022-07-27T17:26:19.759Z,26.34
2022-07-27T17:28:50.162Z,26.23
2022-07-27T17:31:18.950Z,26.12
2022-07-27T17:33:46.297Z,26.02
2022-07-27T17:36:15.353Z,25.92
2022-07-27T17:38:44.934Z,25.71
2022-07-27T17:41:14.598Z,25.63
2022-07-27T17:43:42.569Z,25.58
2022-07-27T17:46:12.753Z,25.44
2022-07-27T17:48:41.238Z,25.33
2022-07-27T17:51:10.648Z,25.25
2022-07-27T17:53:39.073Z,25.19
2022-07-27T17:56:08.429Z,25.13
2022-07-27T17:58:35.947Z,25.07
2022-07-27T18:01:05.465Z,24.96
2022-07-27T18:03:34.990Z,24.89
2022-07-27T18:06:02.872Z,24.81
2022-07-27T18:08:30.369Z,24.75
2022-07-27T18:10:57.690Z,24.72
2022-07-27T18:13:39.232Z,24.69
2022-07-27T18:16:13.327Z,24.59
2022-07-27T18:18:42.307Z,24.52
2022-07-27T18:21:11.131Z,24.48
2022-07-27T18:23:38.803Z,24.39
2022-07-27T18:26:06.993Z,24.33
2022-07-27T18:28:39.318Z,24.31
2022-07-27T18:31:08.334Z,24.25
2022-07-27T18:33:37.026Z,24.21
2022-07-27T18:36:06.483Z,24.17
2022-07-27T18:38:33.836Z,24.08
2022-07-27T18:41:01.431Z,24.06
2022-07-27T18:43:28.652Z,24.05
2022-07-27T18:45:56.324Z,23.99
2022-07-27T18:48:23.763Z,23.97
2022-07-27T18:50:53.590Z,23.98
2022-07-27T18:53:21.093Z,23.97
2022-07-27T18:55:52.750Z,23.97
2022-07-27T18:58:23.065Z,23.96
2022-07-27T19:00:50.950Z,23.92
2022-07-27T19:03:19.747Z,23.86
2022-07-27T19:05:49.489Z,23.82
2022-07-27T19:08:21.792Z,23.76
2022-07-27T19:10:49.202Z,23.73
2022-07-27T19:13:16.834Z,23.71
2022-07-27T19:15:45.519Z,23.70
2022-07-27T19:18:12.976Z,23.69
2022-07-27T19:20:41.512Z,23.65
2022-07-27T19:23:09.087Z,23.62
2022-07-27T19:25:36.423Z,23.57
2022-07-27T19:28:04.738Z,23.55
2022-07-27T19:30:32.434Z,23.52
2022-07-27T19:33:00.811Z,23.51
2022-07-27T19:35:28.468Z,23.54
2022-07-27T19:37:56.189Z,23.53
2022-07-27T19:43:11.264Z,23.46
2022-07-27T19:45:38.609Z,23.43
2022-07-27T19:48:06.841Z,23.42
2022-07-27T19:50:35.022Z,23.42
2022-07-27T19:53:03.326Z,23.40
2022-07-27T19:55:30.827Z,23.38
2022-07-27T19:57:58.515Z,23.37
2022-07-27T20:00:26.001Z,23.35
2022-07-27T20:02:53.489Z,23.33
2022-07-27T20:05:21.781Z,23.33
2022-07-27T20:07:49.041Z,23.33
2022-07-27T20:10:16.706Z,23.35
2022-07-27T20:12:44.252Z,23.34
2022-07-27T20:15:11.669Z,23.32
2022-07-27T20:17:40.424Z,23.32
2022-07-27T20:20:10.838Z,23.28
2022-07-27T20:22:41.206Z,23.27
2022-07-27T20:25:14.929Z,23.25
2022-07-27T20:27:42.883Z,23.21
2022-07-27T20:30:11.816Z,23.16
2022-07-27T20:32:39.126Z,23.12
2022-07-27T20:35:07.287Z,23.10
2022-07-27T20:37:34.921Z,23.10
2022-07-27T20:40:03.178Z,23.12
2022-07-27T20:42:30.893Z,23.04
2022-07-27T20:44:58.425Z,22.98
2022-07-27T20:47:28.698Z,23.00
2022-07-27T20:49:58.656Z,23.01
2022-07-27T20:52:25.848Z,23.01
2022-07-27T20:54:55.928Z,23.00
2022-07-27T20:57:23.282Z,22.97
2022-07-27T20:59:50.514Z,22.95
2022-07-27T21:02:17.889Z,22.93
2022-07-27T21:04:45.460Z,22.89
2022-07-27T21:07:12.880Z,22.78
2022-07-27T21:09:40.284Z,22.76
2022-07-27T21:12:08.099Z,22.73
2022-07-27T21:14:35.337Z,22.63
2022-07-27T21:17:02.692Z,22.58
2022-07-27T21:19:30.287Z,22.51
2022-07-27T21:21:57.525Z,22.49
2022-07-27T21:24:26.229Z,22.47
2022-07-27T21:26:54.175Z,22.47
2022-07-27T21:29:26.087Z,22.46
2022-07-27T21:31:53.652Z,22.44
2022-07-27T21:34:21.700Z,22.41
2022-07-27T21:36:49.909Z,22.33
2022-07-27T21:39:18.212Z,22.32
2022-07-27T21:41:46.014Z,22.31
2022-07-27T21:44:13.808Z,22.31
2022-07-27T21:46:41.440Z,22.26
2022-07-27T21:49:10.449Z,22.25
2022-07-27T21:51:37.823Z,22.23
2022-07-27T21:54:05.699Z,22.26
2022-07-27T21:56:41.899Z,22.23
2022-07-27T21:59:10.505Z,22.16
2022-07-27T22:01:38.058Z,22.10
2022-07-27T22:04:06.378Z,22.00
2022-07-27T22:06:33.788Z,22.00
2022-07-27T22:09:01.256Z,21.91
2022-07-27T22:11:28.696Z,21.92
2022-07-27T22:13:56.060Z,21.91
2022-07-27T22:16:23.803Z,21.88
2022-07-27T22:18:51.330Z,21.83
2022-07-27T22:21:18.699Z,21.84
2022-07-27T22:23:49.157Z,21.83
2022-07-27T22:26:17.559Z,21.82
2022-07-27T22:28:49.930Z,21.84
2022-07-27T22:31:22.614Z,21.87
2022-07-27T22:33:51.124Z,21.83
2022-07-27T22:36:19.105Z,21.80
2022-07-27T22:38:46.507Z,21.78
2022-07-27T22:41:14.147Z,21.79
2022-07-27T22:43:41.848Z,21.79
2022-07-27T22:46:10.168Z,21.77
2022-07-27T22:48:38.090Z,21.78
2022-07-27T22:51:05.606Z,21.77
2022-07-27T22:53:32.965Z,21.78
2022-07-27T22:56:00.543Z,21.76
2022-07-27T22:58:28.203Z,21.76
2022-07-27T23:00:59.346Z,21.72
2022-07-27T23:03:27.485Z,21.71
2022-07-27T23:05:54.973Z,21.65
2022-07-27T23:08:23.152Z,21.63
2022-07-27T23:10:50.443Z,21.63
2022-07-27T23:13:23.011Z,21.60
2022-07-27T23:15:50.655Z,21.57
2022-07-27T23:18:18.341Z,21.59
2022-07-27T23:20:45.874Z,21.59
2022-07-27T23:23:16.302Z,21.59
2022-07-27T23:25:47.719Z,21.54
2022-07-27T23:28:16.230Z,21.54
2022-07-27T23:30:44.158Z,21.55
2022-07-27T23:33:11.445Z,21.54
2022-07-27T23:35:39.010Z,21.50
2022-07-27T23:38:06.645Z,21.50
2022-07-27T23:40:34.111Z,21.48
2022-07-27T23:43:02.436Z,21.47
2022-07-27T23:45:29.659Z,21.44
2022-07-27T23:47:56.925Z,21.45
2022-07-27T23:50:24.426Z,21.48
2022-07-27T23:52:52.132Z,21.50
2022-07-27T23:55:19.378Z,21.52
2022-07-27T23:57:47.218Z,21.54
